sensor_id;sensor_type;location;lat;lon;timestamp;P1;durP1;ratioP1;P2;durP2;ratioP2
19343;SDS011;9808;52.402;16.678;2022-11-20T00:01:31;20.93;;;10.27;;
19343;SDS011;9808;52.402;16.678;2022-11-20T00:03:58;25.10;;;10.40;;
19343;SDS011;9808;52.402;16.678;2022-11-20T00:06:26;20.43;;;10.00;;
19343;SDS011;9808;52.402;16.678;2022-11-20T00:08:54;20.57;;;9.83;;
19343;SDS011;9808;52.402;16.678;2022-11-20T00:11:24;21.43;;;9.40;;
19343;SDS011;9808;52.402;16.678;2022-11-20T00:13:54;21.27;;;9.37;;
19343;SDS011;9808;52.402;16.678;2022-11-20T00:16:25;23.17;;;10.00;;
19343;SDS011;9808;52.402;16.678;2022-11-20T00:18:53;19.17;;;9.50;;
19343;SDS011;9808;52.402;16.678;2022-11-20T00:21:24;18.87;;;9.17;;
19343;SDS011;9808;52.402;16.678;2022-11-20T00:23:53;17.47;;;8.90;;
19343;SDS011;9808;52.402;16.678;2022-11-20T00:26:22;21.20;;;9.27;;
19343;SDS011;9808;52.402;16.678;2022-11-20T00:28:51;20.20;;;9.27;;
19343;SDS011;9808;52.402;16.678;2022-11-20T00:31:23;19.07;;;9.20;;
19343;SDS011;9808;52.402;16.678;2022-11-20T00:33:50;20.10;;;8.93;;
19343;SDS011;9808;52.402;16.678;2022-11-20T00:36:18;17.17;;;8.57;;
19343;SDS011;9808;52.402;16.678;2022-11-20T00:38:53;18.10;;;8.83;;
19343;SDS011;9808;52.402;16.678;2022-11-20T00:41:21;17.33;;;8.33;;
19343;SDS011;9808;52.402;16.678;2022-11-20T00:43:49;16.97;;;8.37;;
19343;SDS011;9808;52.402;16.678;2022-11-20T00:46:18;17.23;;;9.00;;
19343;SDS011;9808;52.402;16.678;2022-11-20T00:48:47;19.93;;;9.40;;
19343;SDS011;9808;52.402;16.678;2022-11-20T00:51:14;18.83;;;9.37;;
19343;SDS011;9808;52.402;16.678;2022-11-20T00:53:46;17.63;;;9.17;;
19343;SDS011;9808;52.402;16.678;2022-11-20T00:56:14;17.97;;;8.30;;
19343;SDS011;9808;52.402;16.678;2022-11-20T00:58:43;18.20;;;8.83;;
19343;SDS011;9808;52.402;16.678;2022-11-20T01:01:13;18.83;;;9.10;;
19343;SDS011;9808;52.402;16.678;2022-11-20T01:03:45;18.07;;;9.03;;
19343;SDS011;9808;52.402;16.678;2022-11-20T01:06:21;18.13;;;9.23;;
19343;SDS011;9808;52.402;16.678;2022-11-20T01:08:50;22.57;;;9.03;;
19343;SDS011;9808;52.402;16.678;2022-11-20T01:11:21;18.33;;;8.80;;
19343;SDS011;9808;52.402;16.678;2022-11-20T01:13:52;20.00;;;9.57;;
19343;SDS011;9808;52.402;16.678;2022-11-20T01:16:28;21.97;;;9.30;;
19343;SDS011;9808;52.402;16.678;2022-11-20T01:19:00;20.17;;;8.73;;
19343;SDS011;9808;52.402;16.678;2022-11-20T01:21:32;19.37;;;8.63;;
19343;SDS011;9808;52.402;16.678;2022-11-20T01:24:01;20.43;;;10.27;;
19343;SDS011;9808;52.402;16.678;2022-11-20T01:26:29;20.67;;;10.00;;
19343;SDS011;9808;52.402;16.678;2022-11-20T01:29:01;19.43;;;9.90;;
19343;SDS011;9808;52.402;16.678;2022-11-20T01:31:30;19.17;;;9.60;;
19343;SDS011;9808;52.402;16.678;2022-11-20T01:33:59;22.03;;;9.67;;
19343;SDS011;9808;52.402;16.678;2022-11-20T01:36:28;22.67;;;11.10;;
19343;SDS011;9808;52.402;16.678;2022-11-20T01:38:59;20.30;;;9.70;;
19343;SDS011;9808;52.402;16.678;2022-11-20T01:41:28;24.33;;;10.37;;
19343;SDS011;9808;52.402;16.678;2022-11-20T01:44:17;21.13;;;9.60;;
19343;SDS011;9808;52.402;16.678;2022-11-20T01:46:58;22.67;;;10.17;;
19343;SDS011;9808;52.402;16.678;2022-11-20T01:52:03;19.57;;;9.97;;
19343;SDS011;9808;52.402;16.678;2022-11-20T01:54:35;22.93;;;10.33;;
19343;SDS011;9808;52.402;16.678;2022-11-20T01:57:05;23.60;;;9.87;;
19343;SDS011;9808;52.402;16.678;2022-11-20T01:59:34;20.20;;;9.97;;
19343;SDS011;9808;52.402;16.678;2022-11-20T02:02:06;20.50;;;9.93;;
19343;SDS011;9808;52.402;16.678;2022-11-20T02:04:33;20.23;;;10.13;;
19343;SDS011;9808;52.402;16.678;2022-11-20T02:07:00;23.17;;;10.47;;
19343;SDS011;9808;52.402;16.678;2022-11-20T02:09:30;20.57;;;10.10;;
19343;SDS011;9808;52.402;16.678;2022-11-20T02:11:56;20.70;;;10.17;;
19343;SDS011;9808;52.402;16.678;2022-11-20T02:14:25;18.70;;;9.63;;
19343;SDS011;9808;52.402;16.678;2022-11-20T02:16:52;20.63;;;11.07;;
19343;SDS011;9808;52.402;16.678;2022-11-20T02:19:22;20.27;;;10.53;;
19343;SDS011;9808;52.402;16.678;2022-11-20T02:21:58;19.27;;;10.30;;
19343;SDS011;9808;52.402;16.678;2022-11-20T02:24:45;21.37;;;9.50;;
19343;SDS011;9808;52.402;16.678;2022-11-20T02:27:14;20.37;;;10.00;;
19343;SDS011;9808;52.402;16.678;2022-11-20T02:30:02;20.90;;;11.17;;
19343;SDS011;9808;52.402;16.678;2022-11-20T02:32:32;21.90;;;11.50;;
19343;SDS011;9808;52.402;16.678;2022-11-20T02:35:35;23.13;;;10.67;;
19343;SDS011;9808;52.402;16.678;2022-11-20T02:37:58;20.00;;;9.73;;
19343;SDS011;9808;52.402;16.678;2022-11-20T02:40:28;23.57;;;10.70;;
19343;SDS011;9808;52.402;16.678;2022-11-20T02:42:55;21.13;;;11.27;;
19343;SDS011;9808;52.402;16.678;2022-11-20T02:45:23;21.70;;;11.57;;
19343;SDS011;9808;52.402;16.678;2022-11-20T02:47:50;23.20;;;11.47;;
19343;SDS011;9808;52.402;16.678;2022-11-20T02:50:18;20.03;;;10.83;;
19343;SDS011;9808;52.402;16.678;2022-11-20T02:52:45;22.77;;;11.37;;
19343;SDS011;9808;52.402;16.678;2022-11-20T02:55:11;27.03;;;12.13;;
19343;SDS011;9808;52.402;16.678;2022-11-20T02:57:38;19.50;;;10.57;;
19343;SDS011;9808;52.402;16.678;2022-11-20T03:00:06;24.60;;;11.37;;
19343;SDS011;9808;52.402;16.678;2022-11-20T03:02:33;26.10;;;11.23;;
19343;SDS011;9808;52.402;16.678;2022-11-20T03:05:00;20.73;;;11.03;;
19343;SDS011;9808;52.402;16.678;2022-11-20T03:07:27;22.43;;;11.47;;
19343;SDS011;9808;52.402;16.678;2022-11-20T03:09:54;24.90;;;12.37;;
19343;SDS011;9808;52.402;16.678;2022-11-20T03:12:21;22.03;;;11.63;;
19343;SDS011;9808;52.402;16.678;2022-11-20T03:14:48;25.80;;;12.00;;
19343;SDS011;9808;52.402;16.678;2022-11-20T03:17:18;24.00;;;11.97;;
19343;SDS011;9808;52.402;16.678;2022-11-20T03:19:45;28.63;;;12.97;;
19343;SDS011;9808;52.402;16.678;2022-11-20T03:22:12;25.33;;;13.10;;
19343;SDS011;9808;52.402;16.678;2022-11-20T03:24:39;24.43;;;13.37;;
19343;SDS011;9808;52.402;16.678;2022-11-20T03:27:06;25.67;;;12.70;;
19343;SDS011;9808;52.402;16.678;2022-11-20T03:29:32;23.53;;;11.67;;
19343;SDS011;9808;52.402;16.678;2022-11-20T03:32:00;23.63;;;11.90;;
19343;SDS011;9808;52.402;16.678;2022-11-20T03:34:27;24.40;;;12.40;;
19343;SDS011;9808;52.402;16.678;2022-11-20T03:36:54;27.77;;;12.20;;
19343;SDS011;9808;52.402;16.678;2022-11-20T03:39:20;25.40;;;12.30;;
19343;SDS011;9808;52.402;16.678;2022-11-20T03:41:48;25.03;;;12.77;;
19343;SDS011;9808;52.402;16.678;2022-11-20T03:44:14;23.93;;;12.00;;
19343;SDS011;9808;52.402;16.678;2022-11-20T03:46:41;26.53;;;12.63;;
19343;SDS011;9808;52.402;16.678;2022-11-20T03:49:08;24.67;;;12.23;;
19343;SDS011;9808;52.402;16.678;2022-11-20T03:51:35;25.77;;;12.40;;
19343;SDS011;9808;52.402;16.678;2022-11-20T03:54:06;22.07;;;11.90;;
19343;SDS011;9808;52.402;16.678;2022-11-20T03:56:34;22.77;;;11.77;;
19343;SDS011;9808;52.402;16.678;2022-11-20T03:59:03;26.63;;;13.40;;
19343;SDS011;9808;52.402;16.678;2022-11-20T04:01:34;27.70;;;12.67;;
19343;SDS011;9808;52.402;16.678;2022-11-20T04:04:03;25.60;;;12.83;;
19343;SDS011;9808;52.402;16.678;2022-11-20T04:06:33;26.00;;;13.93;;
19343;SDS011;9808;52.402;16.678;2022-11-20T04:09:02;27.80;;;13.50;;
19343;SDS011;9808;52.402;16.678;2022-11-20T04:11:30;25.43;;;13.90;;
19343;SDS011;9808;52.402;16.678;2022-11-20T04:13:59;27.87;;;13.23;;
19343;SDS011;9808;52.402;16.678;2022-11-20T04:16:29;24.40;;;12.73;;
19343;SDS011;9808;52.402;16.678;2022-11-20T04:18:58;26.70;;;13.27;;
19343;SDS011;9808;52.402;16.678;2022-11-20T04:21:26;25.73;;;12.60;;
19343;SDS011;9808;52.402;16.678;2022-11-20T04:23:53;30.23;;;14.57;;
19343;SDS011;9808;52.402;16.678;2022-11-20T04:26:21;23.60;;;12.70;;
19343;SDS011;9808;52.402;16.678;2022-11-20T04:28:49;26.87;;;13.57;;
19343;SDS011;9808;52.402;16.678;2022-11-20T04:31:20;30.80;;;13.07;;
19343;SDS011;9808;52.402;16.678;2022-11-20T04:33:48;30.87;;;14.33;;
19343;SDS011;9808;52.402;16.678;2022-11-20T04:36:16;26.30;;;13.97;;
19343;SDS011;9808;52.402;16.678;2022-11-20T04:38:59;30.50;;;13.80;;
19343;SDS011;9808;52.402;16.678;2022-11-20T04:41:31;27.23;;;13.40;;
19343;SDS011;9808;52.402;16.678;2022-11-20T04:44:00;25.30;;;13.33;;
19343;SDS011;9808;52.402;16.678;2022-11-20T04:46:31;27.03;;;12.97;;
19343;SDS011;9808;52.402;16.678;2022-11-20T04:49:00;26.43;;;13.87;;
19343;SDS011;9808;52.402;16.678;2022-11-20T04:51:27;27.47;;;12.93;;
19343;SDS011;9808;52.402;16.678;2022-11-20T04:53:54;25.70;;;12.37;;
19343;SDS011;9808;52.402;16.678;2022-11-20T04:56:21;27.30;;;13.70;;
19343;SDS011;9808;52.402;16.678;2022-11-20T04:58:48;26.87;;;13.20;;
19343;SDS011;9808;52.402;16.678;2022-11-20T05:01:19;25.77;;;11.60;;
19343;SDS011;9808;52.402;16.678;2022-11-20T05:03:47;24.13;;;11.87;;
19343;SDS011;9808;52.402;16.678;2022-11-20T05:06:16;25.33;;;11.93;;
19343;SDS011;9808;52.402;16.678;2022-11-20T05:08:44;24.87;;;12.40;;
19343;SDS011;9808;52.402;16.678;2022-11-20T05:11:12;24.87;;;12.07;;
19343;SDS011;9808;52.402;16.678;2022-11-20T05:13:40;24.07;;;12.13;;
19343;SDS011;9808;52.402;16.678;2022-11-20T05:16:09;24.07;;;10.73;;
19343;SDS011;9808;52.402;16.678;2022-11-20T05:18:40;22.27;;;11.37;;
19343;SDS011;9808;52.402;16.678;2022-11-20T05:21:08;24.27;;;10.97;;
19343;SDS011;9808;52.402;16.678;2022-11-20T05:23:35;24.07;;;10.10;;
19343;SDS011;9808;52.402;16.678;2022-11-20T05:26:03;20.97;;;10.30;;
19343;SDS011;9808;52.402;16.678;2022-11-20T05:28:30;21.93;;;11.50;;
19343;SDS011;9808;52.402;16.678;2022-11-20T05:31:04;21.13;;;10.40;;
19343;SDS011;9808;52.402;16.678;2022-11-20T05:33:36;21.77;;;11.10;;
19343;SDS011;9808;52.402;16.678;2022-11-20T05:36:03;22.40;;;11.20;;
19343;SDS011;9808;52.402;16.678;2022-11-20T05:38:30;20.27;;;10.43;;
19343;SDS011;9808;52.402;16.678;2022-11-20T05:41:07;21.40;;;10.83;;
19343;SDS011;9808;52.402;16.678;2022-11-20T05:43:36;22.30;;;10.90;;
19343;SDS011;9808;52.402;16.678;2022-11-20T05:46:05;20.03;;;10.63;;
19343;SDS011;9808;52.402;16.678;2022-11-20T05:48:32;23.77;;;10.37;;
19343;SDS011;9808;52.402;16.678;2022-11-20T05:51:01;18.17;;;9.97;;
19343;SDS011;9808;52.402;16.678;2022-11-20T05:53:29;23.43;;;11.17;;
19343;SDS011;9808;52.402;16.678;2022-11-20T05:58:24;21.83;;;10.53;;
19343;SDS011;9808;52.402;16.678;2022-11-20T06:00:51;21.33;;;10.13;;
19343;SDS011;9808;52.402;16.678;2022-11-20T06:03:18;22.77;;;11.10;;
19343;SDS011;9808;52.402;16.678;2022-11-20T06:05:45;22.70;;;10.67;;
19343;SDS011;9808;52.402;16.678;2022-11-20T06:08:12;24.43;;;10.53;;
19343;SDS011;9808;52.402;16.678;2022-11-20T06:10:39;22.33;;;10.80;;
19343;SDS011;9808;52.402;16.678;2022-11-20T06:13:06;22.63;;;11.47;;
19343;SDS011;9808;52.402;16.678;2022-11-20T06:15:32;24.83;;;11.07;;
19343;SDS011;9808;52.402;16.678;2022-11-20T06:17:59;24.63;;;12.33;;
19343;SDS011;9808;52.402;16.678;2022-11-20T06:20:26;24.00;;;11.60;;
19343;SDS011;9808;52.402;16.678;2022-11-20T06:22:52;25.57;;;12.30;;
19343;SDS011;9808;52.402;16.678;2022-11-20T06:25:19;25.70;;;13.37;;
19343;SDS011;9808;52.402;16.678;2022-11-20T06:27:46;26.27;;;14.10;;
19343;SDS011;9808;52.402;16.678;2022-11-20T06:30:13;37.67;;;18.83;;
19343;SDS011;9808;52.402;16.678;2022-11-20T06:32:39;37.30;;;17.00;;
19343;SDS011;9808;52.402;16.678;2022-11-20T06:35:06;40.73;;;19.10;;
19343;SDS011;9808;52.402;16.678;2022-11-20T06:37:33;38.73;;;20.10;;
19343;SDS011;9808;52.402;16.678;2022-11-20T06:40:00;32.97;;;16.97;;
19343;SDS011;9808;52.402;16.678;2022-11-20T06:42:27;41.77;;;17.83;;
19343;SDS011;9808;52.402;16.678;2022-11-20T06:44:53;33.13;;;14.20;;
19343;SDS011;9808;52.402;16.678;2022-11-20T06:47:20;27.77;;;13.43;;
19343;SDS011;9808;52.402;16.678;2022-11-20T06:49:47;34.10;;;15.70;;
19343;SDS011;9808;52.402;16.678;2022-11-20T06:52:13;29.73;;;14.37;;
19343;SDS011;9808;52.402;16.678;2022-11-20T06:54:40;33.53;;;15.70;;
19343;SDS011;9808;52.402;16.678;2022-11-20T06:57:07;35.60;;;15.23;;
19343;SDS011;9808;52.402;16.678;2022-11-20T06:59:33;32.40;;;14.53;;
19343;SDS011;9808;52.402;16.678;2022-11-20T07:02:00;33.07;;;14.43;;
19343;SDS011;9808;52.402;16.678;2022-11-20T07:04:27;35.03;;;15.13;;
19343;SDS011;9808;52.402;16.678;2022-11-20T07:06:54;27.17;;;12.50;;
19343;SDS011;9808;52.402;16.678;2022-11-20T07:09:20;29.23;;;14.53;;
19343;SDS011;9808;52.402;16.678;2022-11-20T07:11:47;33.90;;;15.67;;
19343;SDS011;9808;52.402;16.678;2022-11-20T07:14:14;30.83;;;14.30;;
19343;SDS011;9808;52.402;16.678;2022-11-20T07:16:41;35.27;;;15.03;;
19343;SDS011;9808;52.402;16.678;2022-11-20T07:19:07;28.03;;;13.40;;
19343;SDS011;9808;52.402;16.678;2022-11-20T07:21:34;33.23;;;13.90;;
19343;SDS011;9808;52.402;16.678;2022-11-20T07:24:01;29.20;;;14.33;;
19343;SDS011;9808;52.402;16.678;2022-11-20T07:26:27;33.80;;;15.73;;
19343;SDS011;9808;52.402;16.678;2022-11-20T07:28:54;34.87;;;17.03;;
19343;SDS011;9808;52.402;16.678;2022-11-20T07:31:21;38.43;;;17.37;;
19343;SDS011;9808;52.402;16.678;2022-11-20T07:33:48;35.57;;;15.97;;
19343;SDS011;9808;52.402;16.678;2022-11-20T07:36:14;33.70;;;15.23;;
19343;SDS011;9808;52.402;16.678;2022-11-20T07:38:41;35.87;;;18.17;;
19343;SDS011;9808;52.402;16.678;2022-11-20T07:41:08;38.13;;;16.80;;
19343;SDS011;9808;52.402;16.678;2022-11-20T07:43:34;34.20;;;16.57;;
19343;SDS011;9808;52.402;16.678;2022-11-20T07:46:06;31.87;;;16.23;;
19343;SDS011;9808;52.402;16.678;2022-11-20T07:48:33;33.57;;;15.60;;
19343;SDS011;9808;52.402;16.678;2022-11-20T07:51:00;32.20;;;15.23;;
19343;SDS011;9808;52.402;16.678;2022-11-20T07:53:27;35.40;;;17.20;;
19343;SDS011;9808;52.402;16.678;2022-11-20T07:55:53;33.17;;;16.10;;
19343;SDS011;9808;52.402;16.678;2022-11-20T07:58:20;38.10;;;17.83;;
19343;SDS011;9808;52.402;16.678;2022-11-20T08:00:47;33.83;;;15.83;;
19343;SDS011;9808;52.402;16.678;2022-11-20T08:03:14;35.47;;;15.87;;
19343;SDS011;9808;52.402;16.678;2022-11-20T08:05:49;35.30;;;17.03;;
19343;SDS011;9808;52.402;16.678;2022-11-20T08:08:16;37.00;;;17.57;;
19343;SDS011;9808;52.402;16.678;2022-11-20T08:10:42;31.03;;;16.33;;
19343;SDS011;9808;52.402;16.678;2022-11-20T08:13:09;31.17;;;14.73;;
19343;SDS011;9808;52.402;16.678;2022-11-20T08:15:54;37.47;;;17.50;;
19343;SDS011;9808;52.402;16.678;2022-11-20T08:18:21;34.30;;;15.73;;
19343;SDS011;9808;52.402;16.678;2022-11-20T08:20:57;34.20;;;15.50;;
19343;SDS011;9808;52.402;16.678;2022-11-20T08:23:24;38.40;;;16.97;;
19343;SDS011;9808;52.402;16.678;2022-11-20T08:25:51;33.00;;;16.27;;
19343;SDS011;9808;52.402;16.678;2022-11-20T08:28:17;32.50;;;14.93;;
19343;SDS011;9808;52.402;16.678;2022-11-20T08:30:47;29.47;;;14.77;;
19343;SDS011;9808;52.402;16.678;2022-11-20T08:33:16;31.30;;;15.27;;
19343;SDS011;9808;52.402;16.678;2022-11-20T08:35:44;32.73;;;14.57;;
19343;SDS011;9808;52.402;16.678;2022-11-20T08:38:11;35.20;;;15.87;;
19343;SDS011;9808;52.402;16.678;2022-11-20T08:40:38;31.03;;;15.13;;
19343;SDS011;9808;52.402;16.678;2022-11-20T08:43:04;34.83;;;15.03;;
19343;SDS011;9808;52.402;16.678;2022-11-20T08:45:31;30.90;;;14.90;;
19343;SDS011;9808;52.402;16.678;2022-11-20T08:48:01;34.53;;;15.27;;
19343;SDS011;9808;52.402;16.678;2022-11-20T08:50:29;32.77;;;15.50;;
19343;SDS011;9808;52.402;16.678;2022-11-20T08:53:04;34.77;;;16.67;;
19343;SDS011;9808;52.402;16.678;2022-11-20T08:55:31;39.23;;;16.23;;
19343;SDS011;9808;52.402;16.678;2022-11-20T08:58:02;33.30;;;16.10;;
19343;SDS011;9808;52.402;16.678;2022-11-20T09:00:30;31.07;;;15.10;;
19343;SDS011;9808;52.402;16.678;2022-11-20T09:02:58;30.07;;;15.13;;
19343;SDS011;9808;52.402;16.678;2022-11-20T09:05:27;29.50;;;14.73;;
19343;SDS011;9808;52.402;16.678;2022-11-20T09:07:57;35.10;;;15.17;;
19343;SDS011;9808;52.402;16.678;2022-11-20T09:10:25;30.93;;;15.07;;
19343;SDS011;9808;52.402;16.678;2022-11-20T09:12:53;32.20;;;15.13;;
19343;SDS011;9808;52.402;16.678;2022-11-20T09:15:21;31.10;;;14.50;;
19343;SDS011;9808;52.402;16.678;2022-11-20T09:17:55;34.17;;;16.27;;
19343;SDS011;9808;52.402;16.678;2022-11-20T09:20:25;36.30;;;16.13;;
19343;SDS011;9808;52.402;16.678;2022-11-20T09:22:53;32.40;;;15.87;;
19343;SDS011;9808;52.402;16.678;2022-11-20T09:25:19;33.60;;;15.73;;
19343;SDS011;9808;52.402;16.678;2022-11-20T09:27:46;33.53;;;15.63;;
19343;SDS011;9808;52.402;16.678;2022-11-20T09:30:14;34.77;;;16.80;;
19343;SDS011;9808;52.402;16.678;2022-11-20T09:32:41;36.67;;;16.67;;
19343;SDS011;9808;52.402;16.678;2022-11-20T09:35:09;34.40;;;17.57;;
19343;SDS011;9808;52.402;16.678;2022-11-20T09:37:37;39.00;;;18.37;;
19343;SDS011;9808;52.402;16.678;2022-11-20T09:40:04;35.63;;;17.23;;
19343;SDS011;9808;52.402;16.678;2022-11-20T09:45:16;37.27;;;17.53;;
19343;SDS011;9808;52.402;16.678;2022-11-20T09:56:18;37.17;;;17.03;;
19343;SDS011;9808;52.402;16.678;2022-11-20T09:58:49;32.53;;;15.83;;
19343;SDS011;9808;52.402;16.678;2022-11-20T10:01:18;30.47;;;16.07;;
19343;SDS011;9808;52.402;16.678;2022-11-20T10:09:58;40.20;;;16.43;;
19343;SDS011;9808;52.402;16.678;2022-11-20T10:26:01;29.43;;;14.57;;
19343;SDS011;9808;52.402;16.678;2022-11-20T10:34:07;29.43;;;14.40;;
19343;SDS011;9808;52.402;16.678;2022-11-20T10:37:02;33.63;;;15.57;;
19343;SDS011;9808;52.402;16.678;2022-11-20T10:39:43;31.83;;;15.87;;
19343;SDS011;9808;52.402;16.678;2022-11-20T10:42:30;32.67;;;15.53;;
19343;SDS011;9808;52.402;16.678;2022-11-20T10:45:51;58.33;;;24.57;;
19343;SDS011;9808;52.402;16.678;2022-11-20T10:47:51;46.13;;;20.07;;
19343;SDS011;9808;52.402;16.678;2022-11-20T10:50:31;39.47;;;18.03;;
19343;SDS011;9808;52.402;16.678;2022-11-20T10:55:45;49.07;;;20.87;;
19343;SDS011;9808;52.402;16.678;2022-11-20T10:58:18;43.90;;;21.10;;
19343;SDS011;9808;52.402;16.678;2022-11-20T11:01:03;35.87;;;17.63;;
19343;SDS011;9808;52.402;16.678;2022-11-20T11:03:31;33.23;;;15.70;;
19343;SDS011;9808;52.402;16.678;2022-11-20T11:06:01;37.30;;;16.80;;
19343;SDS011;9808;52.402;16.678;2022-11-20T11:08:37;36.27;;;17.60;;
19343;SDS011;9808;52.402;16.678;2022-11-20T11:11:18;37.77;;;17.07;;
19343;SDS011;9808;52.402;16.678;2022-11-20T11:13:47;35.87;;;17.10;;
19343;SDS011;9808;52.402;16.678;2022-11-20T11:16:21;37.77;;;16.87;;
19343;SDS011;9808;52.402;16.678;2022-11-20T11:18:49;40.17;;;19.50;;
19343;SDS011;9808;52.402;16.678;2022-11-20T11:21:23;33.30;;;15.97;;
19343;SDS011;9808;52.402;16.678;2022-11-20T11:23:58;39.27;;;18.93;;
19343;SDS011;9808;52.402;16.678;2022-11-20T11:26:54;34.03;;;16.03;;
19343;SDS011;9808;52.402;16.678;2022-11-20T11:29:23;34.13;;;16.90;;
19343;SDS011;9808;52.402;16.678;2022-11-20T11:32:02;34.87;;;17.30;;
19343;SDS011;9808;52.402;16.678;2022-11-20T11:34:31;37.50;;;18.20;;
19343;SDS011;9808;52.402;16.678;2022-11-20T11:36:59;34.83;;;16.90;;
19343;SDS011;9808;52.402;16.678;2022-11-20T11:39:28;31.43;;;15.00;;
19343;SDS011;9808;52.402;16.678;2022-11-20T11:41:57;32.60;;;15.83;;
19343;SDS011;9808;52.402;16.678;2022-11-20T11:44:33;31.67;;;14.90;;
19343;SDS011;9808;52.402;16.678;2022-11-20T11:47:26;32.63;;;15.33;;
19343;SDS011;9808;52.402;16.678;2022-11-20T11:52:45;37.73;;;16.50;;
19343;SDS011;9808;52.402;16.678;2022-11-20T11:55:34;32.73;;;15.90;;
19343;SDS011;9808;52.402;16.678;2022-11-20T11:59:06;37.23;;;16.53;;
19343;SDS011;9808;52.402;16.678;2022-11-20T12:01:07;33.03;;;16.10;;
19343;SDS011;9808;52.402;16.678;2022-11-20T12:03:59;33.10;;;16.33;;
19343;SDS011;9808;52.402;16.678;2022-11-20T12:06:47;35.40;;;16.87;;
19343;SDS011;9808;52.402;16.678;2022-11-20T12:09:20;41.63;;;18.83;;
19343;SDS011;9808;52.402;16.678;2022-11-20T12:11:54;41.83;;;19.30;;
19343;SDS011;9808;52.402;16.678;2022-11-20T12:14:34;49.70;;;21.90;;
19343;SDS011;9808;52.402;16.678;2022-11-20T12:17:07;50.87;;;22.23;;
19343;SDS011;9808;52.402;16.678;2022-11-20T12:19:38;44.43;;;19.80;;
19343;SDS011;9808;52.402;16.678;2022-11-20T12:22:07;57.10;;;23.20;;
19343;SDS011;9808;52.402;16.678;2022-11-20T12:24:44;61.97;;;25.87;;
19343;SDS011;9808;52.402;16.678;2022-11-20T12:30:03;43.03;;;19.13;;
19343;SDS011;9808;52.402;16.678;2022-11-20T12:32:51;39.60;;;17.17;;
19343;SDS011;9808;52.402;16.678;2022-11-20T12:35:42;49.63;;;19.37;;
19343;SDS011;9808;52.402;16.678;2022-11-20T12:47:33;53.60;;;20.43;;
19343;SDS011;9808;52.402;16.678;2022-11-20T12:52:46;48.33;;;23.23;;
19343;SDS011;9808;52.402;16.678;2022-11-20T12:55:24;39.93;;;18.37;;
19343;SDS011;9808;52.402;16.678;2022-11-20T13:00:37;33.87;;;17.17;;
19343;SDS011;9808;52.402;16.678;2022-11-20T13:03:23;37.83;;;17.23;;
19343;SDS011;9808;52.402;16.678;2022-11-20T13:08:53;38.30;;;19.53;;
19343;SDS011;9808;52.402;16.678;2022-11-20T13:11:37;33.83;;;17.37;;
19343;SDS011;9808;52.402;16.678;2022-11-20T13:14:11;43.30;;;19.37;;
19343;SDS011;9808;52.402;16.678;2022-11-20T13:16:52;46.57;;;20.30;;
19343;SDS011;9808;52.402;16.678;2022-11-20T13:19:31;45.63;;;19.77;;
19343;SDS011;9808;52.402;16.678;2022-11-20T13:21:59;50.63;;;21.17;;
19343;SDS011;9808;52.402;16.678;2022-11-20T13:24:27;50.77;;;23.20;;
19343;SDS011;9808;52.402;16.678;2022-11-20T13:29:35;47.53;;;21.83;;
19343;SDS011;9808;52.402;16.678;2022-11-20T13:34:39;44.47;;;20.97;;
19343;SDS011;9808;52.402;16.678;2022-11-20T13:37:32;44.17;;;18.83;;
19343;SDS011;9808;52.402;16.678;2022-11-20T13:40:20;39.67;;;18.57;;
19343;SDS011;9808;52.402;16.678;2022-11-20T13:45:36;59.97;;;25.37;;
19343;SDS011;9808;52.402;16.678;2022-11-20T13:48:04;50.90;;;22.57;;
19343;SDS011;9808;52.402;16.678;2022-11-20T13:50:51;65.50;;;27.50;;
19343;SDS011;9808;52.402;16.678;2022-11-20T13:53:31;66.13;;;28.37;;
19343;SDS011;9808;52.402;16.678;2022-11-20T13:56:21;71.80;;;29.97;;
19343;SDS011;9808;52.402;16.678;2022-11-20T14:01:52;61.07;;;29.10;;
19343;SDS011;9808;52.402;16.678;2022-11-20T14:04:28;64.03;;;29.67;;
19343;SDS011;9808;52.402;16.678;2022-11-20T14:06:58;70.97;;;31.97;;
19343;SDS011;9808;52.402;16.678;2022-11-20T14:09:27;60.83;;;27.40;;
19343;SDS011;9808;52.402;16.678;2022-11-20T14:11:55;53.23;;;25.30;;
19343;SDS011;9808;52.402;16.678;2022-11-20T14:14:22;55.10;;;24.00;;
19343;SDS011;9808;52.402;16.678;2022-11-20T14:17:07;47.57;;;22.63;;
19343;SDS011;9808;52.402;16.678;2022-11-20T14:19:43;52.07;;;24.73;;
19343;SDS011;9808;52.402;16.678;2022-11-20T14:22:19;61.30;;;28.40;;
19343;SDS011;9808;52.402;16.678;2022-11-20T14:27:45;78.70;;;33.87;;
19343;SDS011;9808;52.402;16.678;2022-11-20T14:30:18;79.33;;;34.23;;
19343;SDS011;9808;52.402;16.678;2022-11-20T14:32:47;73.90;;;33.97;;
19343;SDS011;9808;52.402;16.678;2022-11-20T14:35:23;88.47;;;38.47;;
19343;SDS011;9808;52.402;16.678;2022-11-20T14:37:52;108.93;;;46.50;;
19343;SDS011;9808;52.402;16.678;2022-11-20T14:40:22;98.57;;;43.70;;
19343;SDS011;9808;52.402;16.678;2022-11-20T14:42:54;81.90;;;33.30;;
19343;SDS011;9808;52.402;16.678;2022-11-20T14:45:21;64.20;;;28.47;;
19343;SDS011;9808;52.402;16.678;2022-11-20T14:47:50;55.50;;;25.27;;
19343;SDS011;9808;52.402;16.678;2022-11-20T14:50:24;54.10;;;26.97;;
19343;SDS011;9808;52.402;16.678;2022-11-20T14:52:56;72.63;;;33.13;;
19343;SDS011;9808;52.402;16.678;2022-11-20T14:55:42;70.53;;;31.93;;
19343;SDS011;9808;52.402;16.678;2022-11-20T14:58:22;81.93;;;38.73;;
19343;SDS011;9808;52.402;16.678;2022-11-20T15:00:58;84.43;;;36.80;;
19343;SDS011;9808;52.402;16.678;2022-11-20T15:03:35;90.77;;;39.83;;
19343;SDS011;9808;52.402;16.678;2022-11-20T15:06:04;103.03;;;45.60;;
19343;SDS011;9808;52.402;16.678;2022-11-20T15:08:32;102.23;;;43.00;;
19343;SDS011;9808;52.402;16.678;2022-11-20T15:11:00;90.40;;;39.47;;
19343;SDS011;9808;52.402;16.678;2022-11-20T15:13:34;83.87;;;38.17;;
19343;SDS011;9808;52.402;16.678;2022-11-20T15:16:17;89.67;;;38.33;;
19343;SDS011;9808;52.402;16.678;2022-11-20T15:18:45;90.13;;;42.43;;
19343;SDS011;9808;52.402;16.678;2022-11-20T15:21:17;94.30;;;42.53;;
19343;SDS011;9808;52.402;16.678;2022-11-20T15:23:45;99.33;;;44.57;;
19343;SDS011;9808;52.402;16.678;2022-11-20T15:26:12;115.93;;;48.37;;
19343;SDS011;9808;52.402;16.678;2022-11-20T15:28:46;138.40;;;56.43;;
19343;SDS011;9808;52.402;16.678;2022-11-20T15:31:15;176.30;;;68.70;;
19343;SDS011;9808;52.402;16.678;2022-11-20T15:33:43;178.73;;;71.10;;
19343;SDS011;9808;52.402;16.678;2022-11-20T15:36:10;214.70;;;81.03;;
19343;SDS011;9808;52.402;16.678;2022-11-20T15:38:37;186.97;;;72.93;;
19343;SDS011;9808;52.402;16.678;2022-11-20T15:41:04;181.37;;;71.63;;
19343;SDS011;9808;52.402;16.678;2022-11-20T15:43:31;164.10;;;67.27;;
19343;SDS011;9808;52.402;16.678;2022-11-20T15:46:11;193.83;;;81.10;;
19343;SDS011;9808;52.402;16.678;2022-11-20T15:54:00;133.00;;;57.03;;
19343;SDS011;9808;52.402;16.678;2022-11-20T15:56:29;121.27;;;50.63;;
19343;SDS011;9808;52.402;16.678;2022-11-20T15:59:00;115.83;;;45.90;;
19343;SDS011;9808;52.402;16.678;2022-11-20T16:01:27;95.40;;;40.73;;
19343;SDS011;9808;52.402;16.678;2022-11-20T16:03:54;82.00;;;37.10;;
19343;SDS011;9808;52.402;16.678;2022-11-20T16:06:21;86.50;;;38.77;;
19343;SDS011;9808;52.402;16.678;2022-11-20T16:08:48;94.07;;;41.37;;
19343;SDS011;9808;52.402;16.678;2022-11-20T16:11:15;100.40;;;50.13;;